Time,TemperatureF,DewpointF,PressureIn,WindDirection,WindDirectionDegrees,WindSpeedMPH,WindSpeedGustMPH,Humidity,HourlyPrecipIn,Conditions,Clouds,dailyrainin,SoftwareType,DateUTC
2013-02-10 00:05:00,22.0,18.0,30.25,West,270,1.0,8.0,85,0.00,,,0.00,weatherlink.com 1.10,2013-02-10 05:05:00,
2013-02-10 00:20:00,22.3,19.0,30.25,SSW,203,1.0,8.0,86,0.00,,,0.00,weatherlink.com 1.10,2013-02-10 05:20:00,
2013-02-10 00:35:00,22.9,19.0,30.25,South,176,6.0,11.0,85,0.00,,,0.00,weatherlink.com 1.10,2013-02-10 05:35:00,
2013-02-10 00:50:00,23.6,20.0,30.25,SE,141,2.0,8.0,84,0.00,,,0.00,weatherlink.com 1.10,2013-02-10 05:50:00,
2013-02-10 01:05:00,23.9,20.0,30.25,SE,129,2.0,7.0,83,0.00,,,0.00,weatherlink.com 1.10,2013-02-10 06:05:00,
2013-02-10 01:20:00,24.2,19.0,30.25,SE,142,3.0,11.0,82,0.00,,,0.00,weatherlink.com 1.10,2013-02-10 06:20:00,
2013-02-10 01:35:00,24.2,19.0,30.24,South,173,1.0,7.0,82,0.00,,,0.00,weatherlink.com 1.10,2013-02-10 06:35:00,
2013-02-10 01:50:00,24.0,19.0,30.24,SW,215,2.0,9.0,82,0.00,,,0.00,weatherlink.com 1.10,2013-02-10 06:50:00,
2013-02-10 02:05:00,24.0,19.0,30.24,SSE,150,2.0,8.0,82,0.00,,,0.00,weatherlink.com 1.10,2013-02-10 07:05:00,
2013-02-10 02:20:00,23.9,19.0,30.22,ESE,122,3.0,5.0,82,0.00,,,0.00,weatherlink.com 1.10,2013-02-10 07:20:00,
2013-02-10 02:35:00,23.7,19.0,30.22,SE,133,5.0,6.0,82,0.00,,,0.00,weatherlink.com 1.10,2013-02-10 07:35:00,
2013-02-10 02:50:00,23.4,19.0,30.22,ESE,123,2.0,5.0,82,0.00,,,0.00,weatherlink.com 1.10,2013-02-10 07:50:00,
2013-02-10 03:05:00,23.2,19.0,30.22,South,176,4.0,4.0,83,0.00,,,0.00,weatherlink.com 1.10,2013-02-10 08:05:00,
2013-02-10 03:20:00,23.2,19.0,30.22,ESE,118,2.0,5.0,83,0.00,,,0.00,weatherlink.com 1.10,2013-02-10 08:20:00,
2013-02-10 03:35:00,23.6,19.0,30.21,SE,142,2.0,3.0,83,0.00,,,0.00,weatherlink.com 1.10,2013-02-10 08:35:00,
2013-02-10 03:50:00,23.9,20.0,30.21,ESE,115,1.0,3.0,83,0.00,,,0.00,weatherlink.com 1.10,2013-02-10 08:50:00,
2013-02-10 04:05:00,24.0,20.0,30.20,SE,139,1.0,3.0,84,0.00,,,0.00,weatherlink.com 1.10,2013-02-10 09:05:00,
2013-02-10 04:20:00,24.2,20.0,30.20,SE,125,1.0,4.0,84,0.00,,,0.00,weatherlink.com 1.10,2013-02-10 09:20:00,
2013-02-10 04:35:00,24.5,20.0,30.20,SSE,150,1.0,4.0,84,0.00,,,0.00,weatherlink.com 1.10,2013-02-10 09:35:00,
2013-02-10 04:50:00,24.6,21.0,30.20,SE,141,0.0,5.0,85,0.00,,,0.00,weatherlink.com 1.10,2013-02-10 09:50:00,
2013-02-10 05:05:00,24.7,21.0,30.20,ESE,119,2.0,6.0,85,0.00,,,0.00,weatherlink.com 1.10,2013-02-10 10:05:00,
2013-02-10 05:20:00,24.9,21.0,30.20,ESE,113,3.0,7.0,85,0.00,,,0.00,weatherlink.com 1.10,2013-02-10 10:20:00,
2013-02-10 05:35:00,24.9,21.0,30.20,SE,133,1.0,3.0,85,0.00,,,0.00,weatherlink.com 1.10,2013-02-10 10:35:00,
2013-02-10 05:50:00,24.9,21.0,30.20,East,82,3.0,4.0,86,0.00,,,0.00,weatherlink.com 1.10,2013-02-10 10:50:00,
2013-02-10 06:05:00,24.9,21.0,30.20,SE,134,0.0,3.0,86,0.00,,,0.00,weatherlink.com 1.10,2013-02-10 11:05:00,
2013-02-10 06:20:00,24.8,22.0,30.20,SSE,152,2.0,5.0,87,0.00,,,0.00,weatherlink.com 1.10,2013-02-10 11:20:00,
2013-02-10 06:35:00,24.9,22.0,30.19,ESE,118,4.0,5.0,87,0.00,,,0.00,weatherlink.com 1.10,2013-02-10 11:35:00,
2013-02-10 06:50:00,24.9,22.0,30.19,ESE,113,2.0,5.0,87,0.00,,,0.00,weatherlink.com 1.10,2013-02-10 11:50:00,
2013-02-10 07:05:00,24.9,22.0,30.19,SSE,161,0.0,5.0,88,0.00,,,0.00,weatherlink.com 1.10,2013-02-10 12:05:00,
2013-02-10 07:20:00,24.8,22.0,30.19,SE,129,2.0,5.0,89,0.00,,,0.00,weatherlink.com 1.10,2013-02-10 12:20:00,
2013-02-10 07:35:00,24.7,22.0,30.20,South,178,1.0,5.0,89,0.00,,,0.00,weatherlink.com 1.10,2013-02-10 12:35:00,
2013-02-10 07:50:00,24.7,22.0,30.19,ESE,122,3.0,5.0,90,0.00,,,0.00,weatherlink.com 1.10,2013-02-10 12:50:00,
2013-02-10 08:05:00,24.8,22.0,30.19,ENE,78,1.0,3.0,90,0.00,,,0.00,weatherlink.com 1.10,2013-02-10 13:05:00,
2013-02-10 08:20:00,25.0,23.0,30.19,SE,127,2.0,4.0,90,0.00,,,0.00,weatherlink.com 1.10,2013-02-10 13:20:00,
2013-02-10 08:35:00,25.2,23.0,30.18,SE,125,3.0,4.0,90,0.00,,,0.00,weatherlink.com 1.10,2013-02-10 13:35:00,
2013-02-10 08:50:00,25.6,23.0,30.18,ESE,116,4.0,6.0,90,0.00,,,0.00,weatherlink.com 1.10,2013-02-10 13:50:00,
2013-02-10 09:06:00,26.1,23.0,30.17,ESE,104,2.0,5.0,89,0.00,,,0.00,weatherlink.com 1.10,2013-02-10 14:06:00,
2013-02-10 09:21:00,26.7,24.0,30.17,SE,125,3.0,4.0,88,0.00,,,0.00,weatherlink.com 1.10,2013-02-10 14:21:00,
2013-02-10 09:36:00,26.7,24.0,30.16,SE,136,4.0,9.0,89,0.00,,,0.00,weatherlink.com 1.10,2013-02-10 14:36:00,
2013-02-10 09:51:00,26.3,24.0,30.14,SE,146,4.0,12.0,89,0.00,,,0.00,weatherlink.com 1.10,2013-02-10 14:51:00,
2013-02-10 10:06:00,26.1,24.0,30.13,SE,130,7.0,13.0,90,0.00,,,0.00,weatherlink.com 1.10,2013-02-10 15:06:00,
2013-02-10 10:21:00,26.6,24.0,30.13,East,90,2.0,10.0,90,0.00,,,0.00,weatherlink.com 1.10,2013-02-10 15:21:00,
2013-02-10 10:36:00,27.0,24.0,30.12,East,95,5.0,10.0,89,0.00,,,0.00,weatherlink.com 1.10,2013-02-10 15:36:00,
2013-02-10 10:51:00,26.6,24.0,30.11,ESE,105,7.0,11.0,89,0.00,,,0.00,weatherlink.com 1.10,2013-02-10 15:51:00,
2013-02-10 11:06:00,26.6,24.0,30.10,East,96,7.0,14.0,90,0.00,,,0.00,weatherlink.com 1.10,2013-02-10 16:06:00,
2013-02-10 11:21:00,27.0,24.0,30.09,ESE,108,9.0,13.0,89,0.00,,,0.00,weatherlink.com 1.10,2013-02-10 16:21:00,
2013-02-10 11:36:00,27.9,25.0,30.09,ESE,110,6.0,11.0,88,0.00,,,0.00,weatherlink.com 1.10,2013-02-10 16:36:00,
2013-02-10 11:51:00,28.4,25.0,30.08,SE,126,7.0,16.0,86,0.00,,,0.00,weatherlink.com 1.10,2013-02-10 16:51:00,
2013-02-10 12:06:00,29.9,26.0,30.08,SE,125,10.0,16.0,84,0.00,,,0.00,weatherlink.com 1.10,2013-02-10 17:06:00,
2013-02-10 12:21:00,30.6,25.0,30.08,SSE,162,8.0,13.0,81,0.00,,,0.00,weatherlink.com 1.10,2013-02-10 17:21:00,
2013-02-10 12:36:00,30.5,26.0,30.07,SE,145,9.0,17.0,82,0.00,,,0.00,weatherlink.com 1.10,2013-02-10 17:36:00,
2013-02-10 12:51:00,30.6,26.0,30.06,East,98,11.0,15.0,83,0.00,,,0.00,weatherlink.com 1.10,2013-02-10 17:51:00,
2013-02-10 13:06:00,30.3,26.0,30.06,East,90,6.0,13.0,84,0.00,,,0.00,weatherlink.com 1.10,2013-02-10 18:06:00,
2013-02-10 13:21:00,30.6,26.0,30.05,ESE,120,2.0,11.0,84,0.00,,,0.00,weatherlink.com 1.10,2013-02-10 18:21:00,
2013-02-10 13:36:00,31.3,27.0,30.04,ESE,122,10.0,16.0,85,0.00,,,0.00,weatherlink.com 1.10,2013-02-10 18:36:00,
2013-02-10 13:51:00,31.6,28.0,30.03,SE,131,8.0,14.0,85,0.00,,,0.00,weatherlink.com 1.10,2013-02-10 18:51:00,
2013-02-10 14:06:00,32.2,28.0,30.02,ESE,108,6.0,17.0,85,0.00,,,0.00,weatherlink.com 1.10,2013-02-10 19:06:00,
2013-02-10 14:22:00,32.3,28.0,30.01,East,95,17.0,19.0,85,0.00,,,0.00,weatherlink.com 1.10,2013-02-10 19:22:00,
2013-02-10 14:37:00,32.5,28.0,30.00,SE,125,9.0,18.0,84,0.00,,,0.00,weatherlink.com 1.10,2013-02-10 19:37:00,
2013-02-10 14:52:00,32.6,28.0,29.99,ESE,110,14.0,19.0,84,0.00,,,0.00,weatherlink.com 1.10,2013-02-10 19:52:00,
2013-02-10 15:08:00,32.8,29.0,29.98,SE,132,7.0,20.0,86,0.00,,,0.00,weatherlink.com 1.10,2013-02-10 20:08:00,
2013-02-10 15:22:00,33.0,30.0,29.98,East,98,12.0,21.0,88,0.00,,,0.00,weatherlink.com 1.10,2013-02-10 20:22:00,
2013-02-10 15:37:00,33.0,30.0,29.98,East,88,14.0,21.0,88,0.00,,,0.00,weatherlink.com 1.10,2013-02-10 20:37:00,
2013-02-10 15:52:00,33.1,30.0,29.96,SSE,149,8.0,15.0,88,0.00,,,0.00,weatherlink.com 1.10,2013-02-10 20:52:00,
2013-02-10 16:07:00,33.1,30.0,29.96,SE,130,13.0,18.0,89,0.00,,,0.00,weatherlink.com 1.10,2013-02-10 21:07:00,
2013-02-10 16:22:00,33.0,30.0,29.94,SE,129,8.0,17.0,89,0.00,,,0.00,weatherlink.com 1.10,2013-02-10 21:22:00,
2013-02-10 16:37:00,32.6,30.0,29.93,SE,142,6.0,22.0,90,0.00,,,0.00,weatherlink.com 1.10,2013-02-10 21:37:00,
2013-02-10 16:52:00,32.3,30.0,29.92,ESE,105,15.0,25.0,90,0.00,,,0.00,weatherlink.com 1.10,2013-02-10 21:52:00,
2013-02-10 17:07:00,32.0,29.0,29.91,ESE,105,14.0,18.0,90,0.00,,,0.00,weatherlink.com 1.10,2013-02-10 22:07:00,
2013-02-10 17:22:00,31.7,29.0,29.90,East,91,9.0,19.0,90,0.00,,,0.00,weatherlink.com 1.10,2013-02-10 22:22:00,
2013-02-10 17:37:00,31.4,29.0,29.89,East,98,17.0,17.0,90,0.00,,,0.00,weatherlink.com 1.10,2013-02-10 22:37:00,
2013-02-10 17:52:00,31.3,29.0,29.87,East,94,9.0,19.0,89,0.00,,,0.00,weatherlink.com 1.10,2013-02-10 22:52:00,
2013-02-10 18:07:00,31.3,29.0,29.87,ESE,115,11.0,20.0,89,0.00,,,0.00,weatherlink.com 1.10,2013-02-10 23:07:00,
2013-02-10 18:22:00,31.5,28.0,29.86,NE,40,13.0,20.0,88,0.00,,,0.00,weatherlink.com 1.10,2013-02-10 23:22:00,
2013-02-10 18:37:00,31.6,29.0,29.85,East,99,7.0,21.0,88,0.00,,,0.00,weatherlink.com 1.10,2013-02-10 23:37:00,
2013-02-10 18:52:00,30.6,28.0,29.84,ESE,107,20.0,21.0,91,0.00,,,0.00,weatherlink.com 1.10,2013-02-10 23:52:00,
2013-02-10 19:07:00,30.4,28.0,29.83,ESE,104,10.0,23.0,92,0.00,,,0.00,weatherlink.com 1.10,2013-02-11 00:07:00,
2013-02-10 19:22:00,30.3,28.0,29.82,ESE,110,12.0,18.0,92,0.00,,,0.00,weatherlink.com 1.10,2013-02-11 00:22:00,
2013-02-10 19:37:00,30.5,28.0,29.80,East,96,11.0,19.0,91,0.00,,,0.00,weatherlink.com 1.10,2013-02-11 00:37:00,
2013-02-10 19:52:00,30.7,28.0,29.80,ESE,113,11.0,25.0,91,0.00,,,0.00,weatherlink.com 1.10,2013-02-11 00:52:00,
2013-02-10 20:07:00,30.8,29.0,29.78,ESE,113,7.0,18.0,92,0.00,,,0.00,weatherlink.com 1.10,2013-02-11 01:07:00,
2013-02-10 20:22:00,30.9,29.0,29.77,ESE,121,12.0,17.0,92,0.00,,,0.00,weatherlink.com 1.10,2013-02-11 01:22:00,
2013-02-10 20:37:00,31.2,29.0,29.77,ESE,105,10.0,18.0,92,0.00,,,0.00,weatherlink.com 1.10,2013-02-11 01:37:00,
2013-02-10 20:52:00,31.5,30.0,29.77,ESE,109,14.0,20.0,93,0.00,,,0.00,weatherlink.com 1.10,2013-02-11 01:52:00,
2013-02-10 21:08:00,31.4,30.0,29.74,ESE,110,8.0,17.0,93,0.00,,,0.00,weatherlink.com 1.10,2013-02-11 02:08:00,
2013-02-10 21:23:00,31.9,30.0,29.74,SE,125,9.0,19.0,94,0.00,,,0.00,weatherlink.com 1.10,2013-02-11 02:23:00,
2013-02-10 21:38:00,32.1,30.0,29.72,ESE,115,6.0,19.0,93,0.00,,,0.00,weatherlink.com 1.10,2013-02-11 02:38:00,
2013-02-10 21:53:00,32.0,30.0,29.72,ESE,120,11.0,20.0,93,0.00,,,0.00,weatherlink.com 1.10,2013-02-11 02:53:00,
2013-02-10 22:08:00,32.2,31.0,29.70,ESE,113,11.0,18.0,94,0.00,,,0.00,weatherlink.com 1.10,2013-02-11 03:08:00,
2013-02-10 22:23:00,32.4,31.0,29.68,SE,135,9.0,21.0,94,0.00,,,0.00,weatherlink.com 1.10,2013-02-11 03:23:00,
2013-02-10 22:38:00,32.5,31.0,29.67,SE,126,5.0,19.0,94,0.00,,,0.00,weatherlink.com 1.10,2013-02-11 03:38:00,
2013-02-10 22:53:00,32.7,31.0,29.66,SSE,150,12.0,20.0,94,0.00,,,0.00,weatherlink.com 1.10,2013-02-11 03:53:00,
2013-02-10 23:08:00,32.8,31.0,29.64,ESE,110,12.0,18.0,94,0.00,,,0.00,weatherlink.com 1.10,2013-02-11 04:08:00,
2013-02-10 23:23:00,32.9,31.0,29.63,ESE,122,7.0,17.0,94,0.00,,,0.00,weatherlink.com 1.10,2013-02-11 04:23:00,
2013-02-10 23:38:00,32.9,31.0,29.61,East,101,15.0,20.0,94,0.00,,,0.00,weatherlink.com 1.10,2013-02-11 04:38:00,
2013-02-10 23:53:00,32.9,31.0,29.61,ESE,118,8.0,18.0,94,0.00,,,0.00,weatherlink.com 1.10,2013-02-11 04:53:00,